Time;durP1;ratioP1;P1;durP2;ratioP2;P2;SDS_P1;SDS_P2;PMS_P1;PMS_P2;Temp;Humidity;BMP_temperature;BMP_pressure;BME280_temperature;BME280_humidity;BME280_pressure;Samples;Min_cycle;Max_cycle;Signal;HPM_P1;HPM_P2
2022/07/12 00:01:02;;;;;;;;;;;;;;;-142.75;100.00;77227.81;4950306;28;19954;-71
2022/07/12 00:03:27;;;;;;;;;;;;;;;-142.75;100.00;77227.81;4950144;28;19914;-70
2022/07/12 00:05:53;;;;;;;;;;;;;;;-142.75;100.00;77227.81;4951421;28;19972;-71
2022/07/12 00:08:18;;;;;;;;;;;;;;;-142.75;100.00;77225.84;4951232;28;19967;-71
2022/07/12 00:10:43;;;;;;;;;;;;;;;-142.75;100.00;77227.81;4951339;28;19970;-71
2022/07/12 00:13:10;;;;;;;;;;;;;;;-142.75;100.00;77229.78;4950174;28;20033;-71
2022/07/12 00:15:35;;;;;;;;;;;;;;;-142.75;100.00;77223.88;4951351;28;20510;-71
2022/07/12 00:18:01;;;;;;;;;;;;;;;-142.75;100.00;77227.81;4951105;28;19954;-70
2022/07/12 00:20:26;;;;;;;;;;;;;;;-142.75;100.00;77223.88;4949996;28;19963;-71
2022/07/12 00:22:51;;;;;;;;;;;;;;;-142.75;100.00;77227.81;4951225;28;19914;-71
2022/07/12 00:25:16;;;;;;;;;;;;;;;-142.75;100.00;77239.63;4952229;28;19926;-71
2022/07/12 00:27:42;;;;;;;;;;;;;;;-142.75;100.00;77239.63;4951073;28;19919;-68
2022/07/12 00:30:07;;;;;;;;;;;;;;;-142.75;100.00;77247.50;4949872;28;19918;-69
2022/07/12 00:32:32;;;;;;;;;;;;;;;-142.75;100.00;77247.50;4951118;28;19922;-69
2022/07/12 00:34:58;;;;;;;;;;;;;;;-142.75;100.00;77253.41;4951030;28;19915;-70
2022/07/12 00:37:25;;;;;;;;;;;;;;;-142.75;100.00;77263.25;4950652;28;20349;-71
2022/07/12 00:39:50;;;;;;;;;;;;;;;-142.75;100.00;77261.28;4950805;28;19914;-71
2022/07/12 00:42:16;;;;;;;;;;;;;;;-142.75;100.00;77261.28;4951100;28;19914;-70
2022/07/12 00:44:41;;;;;;;;;;;;;;;-142.75;100.00;77267.19;4950965;28;20292;-70
2022/07/12 00:47:06;;;;;;;;;;;;;;;-142.75;100.00;77275.06;4951007;28;20372;-70
2022/07/12 00:49:31;;;;;;;;;;;;;;;-142.75;100.00;77279.00;4950685;28;19914;-70
2022/07/12 00:51:57;;;;;;;;;;;;;;;-142.75;100.00;77277.03;4950837;28;19918;-70
2022/07/12 00:54:22;;;;;;;;;;;;;;;-142.75;100.00;77280.97;4950876;28;19981;-71
2022/07/12 00:56:48;;;;;;;;;;;;;;;-142.75;100.00;77279.00;4950943;28;19965;-71
2022/07/12 00:59:13;;;;;;;;;;;;;;;-142.75;100.00;77277.03;4950571;28;19921;-70
2022/07/12 01:01:39;;;;;;;;;;;;;;;-142.75;100.00;77286.88;4950836;28;20415;-70
2022/07/12 01:04:04;;;;;;;;;;;;;;;-142.75;100.00;77292.78;4953323;28;19914;-69
2022/07/12 01:06:30;;;;;;;;;;;;;;;-142.75;100.00;77296.72;4954067;28;19914;-70
2022/07/12 01:08:56;;;;;;;;;;;;;;;-142.75;100.00;77290.81;4953814;28;20380;-70
2022/07/12 01:11:21;;;;;;;;;;;;;;;-142.75;100.00;77284.91;4953937;28;20372;-70
2022/07/12 01:13:47;;;;;;;;;;;;;;;-142.75;100.00;77282.94;4953909;28;19921;-70
2022/07/12 01:16:14;;;;;;;;;;;;;;;-142.75;100.00;77280.97;4953949;28;19926;-71
2022/07/12 01:18:40;;;;;;;;;;;;;;;-142.75;100.00;77280.97;4953628;28;19954;-71
2022/07/12 01:21:07;;;;;;;;;;;;;;;-142.75;100.00;77271.13;4953789;28;19990;-70
2022/07/12 01:23:33;;;;;;;;;;;;;;;-142.75;100.00;77271.13;4953694;28;19926;-69
2022/07/12 01:25:59;;;;;;;;;;;;;;;-142.75;100.00;77275.06;4953941;28;19914;-70
2022/07/12 01:28:24;;;;;;;;;;;;;;;-142.75;100.00;77269.16;4953556;28;19922;-70
2022/07/12 01:30:50;;;;;;;;;;;;;;;-142.75;100.00;77271.13;4952462;28;20331;-71
2022/07/12 01:33:15;;;;;;;;;;;;;;;-142.75;100.00;77277.03;4953600;28;19942;-70
2022/07/12 01:35:41;;;;;;;;;;;;;;;-142.75;100.00;77279.00;4953663;28;20005;-70
2022/07/12 01:38:06;;;;;;;;;;;;;;;-142.75;100.00;77294.75;4953396;28;19914;-70
2022/07/12 01:40:31;;;;;;;;;;;;;;;-142.75;100.00;77292.78;4952421;28;19919;-69
2022/07/12 01:42:57;;;;;;;;;;;;;;;-142.75;100.00;77292.78;4953596;28;19914;-70
2022/07/12 01:45:22;;;;;;;;;;;;;;;-142.75;100.00;77298.69;4952266;28;19926;-70
2022/07/12 01:47:48;;;;;;;;;;;;;;;-142.75;100.00;77310.50;4953336;28;19954;-69
2022/07/12 01:50:14;;;;;;;;;;;;;;;-142.75;100.00;77322.31;4953307;28;19915;-70
2022/07/12 01:52:40;;;;;;;;;;;;;;;-142.75;100.00;77349.88;4953341;28;19949;-71
2022/07/12 01:55:06;;;;;;;;;;;;;;;-142.75;100.00;77361.69;4953345;28;19922;-70
2022/07/12 01:57:32;;;;;;;;;;;;;;;-142.75;100.00;77385.31;4953323;28;19937;-71
2022/07/12 01:59:57;;;;;;;;;;;;;;;-142.75;100.00;77389.25;4953064;28;19960;-70
2022/07/12 02:02:25;;;;;;;;;;;;;;;-142.75;100.00;77393.19;4953274;28;19918;-70
2022/07/12 02:04:50;;;;;;;;;;;;;;;-142.75;100.00;77387.28;4953094;28;19961;-70
2022/07/12 02:07:15;;;;;;;;;;;;;;;-142.75;100.00;77389.25;4953257;28;19965;-70
2022/07/12 02:09:40;;;;;;;;;;;;;;;-142.75;100.00;77373.50;4952893;28;19969;-70
2022/07/12 02:12:06;;;;;;;;;;;;;;;-142.75;100.00;77373.50;4953141;28;19969;-70
2022/07/12 02:14:31;;;;;;;;;;;;;;;-142.75;100.00;77369.56;4952817;28;20402;-70
2022/07/12 02:16:56;;;;;;;;;;;;;;;-142.75;100.00;77377.44;4953056;28;20363;-70
2022/07/12 02:19:21;;;;;;;;;;;;;;;-142.75;100.00;77367.59;4951451;28;19988;-70
2022/07/12 02:21:47;;;;;;;;;;;;;;;-142.75;100.00;77361.69;4952993;28;20434;-70
2022/07/12 02:24:12;;;;;;;;;;;;;;;-142.75;100.00;77369.56;4952754;28;19954;-70
2022/07/12 02:26:38;;;;;;;;;;;;;;;-142.75;100.00;77381.38;4952906;28;19914;-70
2022/07/12 02:29:03;;;;;;;;;;;;;;;-142.75;100.00;77389.25;4952646;28;20419;-69
2022/07/12 02:31:29;;;;;;;;;;;;;;;-142.75;100.00;77393.19;4952768;28;19919;-70
2022/07/12 02:33:54;;;;;;;;;;;;;;;-142.75;100.00;77385.31;4951419;28;20337;-70
2022/07/12 02:36:19;;;;;;;;;;;;;;;-142.75;100.00;77381.38;4951556;28;19921;-70
2022/07/12 02:38:44;;;;;;;;;;;;;;;-142.75;100.00;77373.50;4952452;28;19914;-70
2022/07/12 02:41:10;;;;;;;;;;;;;;;-142.75;100.00;77365.63;4952732;28;19918;-70
2022/07/12 02:43:35;;;;;;;;;;;;;;;-142.75;100.00;77367.59;4952624;28;20291;-70
2022/07/12 02:46:03;;;;;;;;;;;;;;;-142.75;100.00;77365.63;4952648;28;20296;-70
2022/07/12 02:48:28;;;;;;;;;;;;;;;-142.75;100.00;77369.56;4952200;28;20454;-70
2022/07/12 02:50:53;;;;;;;;;;;;;;;-142.75;100.00;77373.50;4952491;28;19953;-71
2022/07/12 02:53:19;;;;;;;;;;;;;;;-142.75;100.00;77377.44;4952447;28;19915;-70
2022/07/12 02:55:44;;;;;;;;;;;;;;;-142.75;100.00;77379.41;4952499;28;20280;-70
2022/07/12 02:58:11;;;;;;;;;;;;;;;-142.75;100.00;77381.38;4952172;28;19922;-70
2022/07/12 03:00:37;;;;;;;;;;;;;;;-142.75;100.00;77381.38;4952407;28;19915;-69
2022/07/12 03:03:02;;;;;;;;;;;;;;;-142.75;100.00;77385.31;4952261;28;19919;-70
2022/07/12 03:05:27;;;;;;;;;;;;;;;-142.75;100.00;77391.22;4952282;28;19922;-71
2022/07/12 03:07:52;;;;;;;;;;;;;;;-142.75;100.00;77391.22;4952005;28;20368;-70
2022/07/12 03:10:18;;;;;;;;;;;;;;;-142.75;100.00;77406.97;4952267;28;19969;-70
2022/07/12 03:12:43;;;;;;;;;;;;;;;-142.75;100.00;77408.94;4952168;28;19919;-70
2022/07/12 03:15:08;;;;;;;;;;;;;;;-142.75;100.00;77406.97;4952137;28;19921;-70
2022/07/12 03:17:34;;;;;;;;;;;;;;;-142.75;100.00;77414.84;4952027;28;20300;-70
2022/07/12 03:19:59;;;;;;;;;;;;;;;-142.75;100.00;77432.56;4951940;28;19918;-70
2022/07/12 03:22:24;;;;;;;;;;;;;;;-142.75;100.00;77436.50;4952245;28;20429;-69
2022/07/12 03:24:50;;;;;;;;;;;;;;;-142.75;100.00;77436.50;4950441;28;19919;-70
2022/07/12 03:27:15;;;;;;;;;;;;;;;-142.75;100.00;77438.47;4951790;28;20358;-70
2022/07/12 03:29:40;;;;;;;;;;;;;;;-142.75;100.00;77462.13;4951730;28;19922;-70
2022/07/12 03:32:06;;;;;;;;;;;;;;;-142.75;100.00;77468.03;4951806;28;19919;-69
2022/07/12 03:34:32;;;;;;;;;;;;;;;-142.75;100.00;77487.72;4951804;28;20017;-69
2022/07/12 03:36:57;;;;;;;;;;;;;;;-142.75;100.00;77493.63;4950659;28;20013;-70
2022/07/12 03:39:22;;;;;;;;;;;;;;;-142.75;100.00;77495.59;4951618;28;19918;-70
2022/07/12 03:41:47;;;;;;;;;;;;;;;-142.75;100.00;77489.69;4951859;28;19914;-69
2022/07/12 03:44:12;;;;;;;;;;;;;;;-142.75;100.00;77497.56;4951747;28;19968;-70
2022/07/12 03:46:37;;;;;;;;;;;;;;;-142.75;100.00;77511.34;4951692;28;20455;-70
2022/07/12 03:49:03;;;;;;;;;;;;;;;-142.75;100.00;77515.28;4951433;28;19919;-70
2022/07/12 03:51:28;;;;;;;;;;;;;;;-142.75;100.00;77503.47;4951631;28;20022;-70
2022/07/12 03:53:53;;;;;;;;;;;;;;;-142.75;100.00;77497.56;4951673;28;19914;-69
2022/07/12 03:59:02;;;;;;;;;;;;;;;-142.75;100.00;77487.72;4951668;29;19961;-70
2022/07/12 04:01:28;;;;;;;;;;;;;;;-142.75;100.00;77487.72;4951494;28;19950;-71
2022/07/12 04:03:55;;;;;;;;;;;;;;;-142.75;100.00;77479.84;4951464;28;20366;-69
2022/07/12 04:06:20;;;;;;;;;;;;;;;-142.75;100.00;77479.84;4951533;28;20406;-70
2022/07/12 04:08:45;;;;;;;;;;;;;;;-142.75;100.00;77479.84;4949978;28;19962;-70
2022/07/12 04:11:10;;;;;;;;;;;;;;;-142.75;100.00;77470.00;4951395;28;19925;-70
2022/07/12 04:13:35;;;;;;;;;;;;;;;-142.75;100.00;77464.09;4951362;28;19958;-70
2022/07/12 04:16:01;;;;;;;;;;;;;;;-142.75;100.00;77452.25;4951220;28;20352;-70
2022/07/12 04:18:26;;;;;;;;;;;;;;;-142.75;100.00;77446.34;4951033;28;19915;-70
2022/07/12 04:20:51;;;;;;;;;;;;;;;-142.75;100.00;77438.47;4950080;28;19915;-69
2022/07/12 04:23:16;;;;;;;;;;;;;;;-142.75;100.00;77436.50;4951140;28;19988;-70
2022/07/12 04:25:41;;;;;;;;;;;;;;;-142.75;100.00;77432.56;4950184;28;19987;-70
2022/07/12 04:28:06;;;;;;;;;;;;;;;-142.75;100.00;77424.69;4951025;28;20009;-70
2022/07/12 04:30:32;;;;;;;;;;;;;;;-142.75;100.00;77418.78;4951070;28;19918;-70
2022/07/12 04:32:57;;;;;;;;;;;;;;;-142.75;100.00;77406.97;4951186;28;20372;-70
2022/07/12 04:35:22;;;;;;;;;;;;;;;-142.75;100.00;77401.06;4949842;28;19918;-70
2022/07/12 04:37:47;;;;;;;;;;;;;;;-142.75;100.00;77401.06;4951940;28;19922;-70
2022/07/12 04:40:12;;;;;;;;;;;;;;;-142.75;100.00;77401.06;4954380;28;20527;-70
2022/07/12 04:42:38;;;;;;;;;;;;;;;-142.75;100.00;77385.31;4954521;28;19914;-70
2022/07/12 04:45:03;;;;;;;;;;;;;;;-142.75;100.00;77379.41;4954238;28;20369;-68
2022/07/12 04:47:28;;;;;;;;;;;;;;;-142.75;100.00;77377.44;4953086;28;19922;-70
2022/07/12 04:49:53;;;;;;;;;;;;;;;-142.75;100.00;77369.56;4954111;28;19960;-70
2022/07/12 04:52:19;;;;;;;;;;;;;;;-142.75;100.00;77373.50;4953039;28;20385;-70
2022/07/12 04:54:44;;;;;;;;;;;;;;;-142.75;100.00;77369.56;4954178;28;20398;-70
2022/07/12 04:57:09;;;;;;;;;;;;;;;-142.75;100.00;77363.66;4954257;28;19915;-71
2022/07/12 04:59:34;;;;;;;;;;;;;;;-142.75;100.00;77353.81;4953844;28;19993;-71
2022/07/12 05:02:00;;;;;;;;;;;;;;;-142.75;100.00;77349.88;4954126;28;20022;-70
2022/07/12 05:04:26;;;;;;;;;;;;;;;-142.75;100.00;77334.13;4954096;28;19968;-70
2022/07/12 05:06:52;;;;;;;;;;;;;;;-142.75;100.00;77328.22;4954125;28;19915;-69
2022/07/12 05:09:17;;;;;;;;;;;;;;;-142.75;100.00;77324.28;4953800;28;20380;-70
2022/07/12 05:11:42;;;;;;;;;;;;;;;-142.75;100.00;77312.47;4953924;28;19929;-70
2022/07/12 05:14:07;;;;;;;;;;;;;;;-142.75;100.00;77320.34;4952590;28;19961;-70
2022/07/12 05:16:32;;;;;;;;;;;;;;;-142.75;100.00;77314.44;4952700;28;19964;-71
2022/07/12 05:18:59;;;;;;;;;;;;;;;-142.75;100.00;77316.41;4953598;28;20380;-70
2022/07/12 05:21:24;;;;;;;;;;;;;;;-142.75;100.00;77314.44;4952611;28;20430;-69
2022/07/12 05:23:49;;;;;;;;;;;;;;;-142.75;100.00;77310.50;4952453;28;19919;-70
2022/07/12 05:26:14;;;;;;;;;;;;;;;-142.75;100.00;77306.56;4953824;28;19914;-71
2022/07/12 05:28:39;;;;;;;;;;;;;;;-142.75;100.00;77296.72;4952253;28;19915;-70
2022/07/12 05:31:05;;;;;;;;;;;;;;;-142.75;100.00;77286.88;4953595;28;19919;-70
2022/07/12 05:33:30;;;;;;;;;;;;;;;-142.75;100.00;77282.94;4953731;28;20368;-70
2022/07/12 05:35:55;;;;;;;;;;;;;;;-142.75;100.00;77282.94;4953644;28;19922;-70
2022/07/12 05:38:20;;;;;;;;;;;;;;;-142.75;100.00;77282.94;4953431;28;19922;-69
2022/07/12 05:40:45;;;;;;;;;;;;;;;-142.75;100.00;77275.06;4953641;28;19960;-70
2022/07/12 05:43:11;;;;;;;;;;;;;;;-142.75;100.00;77265.22;4953574;28;20387;-70
2022/07/12 05:45:36;;;;;;;;;;;;;;;-142.75;100.00;77241.59;4953354;28;19919;-70
2022/07/12 05:48:01;;;;;;;;;;;;;;;-142.75;100.00;77235.69;4952864;28;19914;-70
2022/07/12 05:50:26;;;;;;;;;;;;;;;-142.75;100.00;77227.81;4953345;28;19914;-70
2022/07/12 05:55:35;;;;;;;;;;;;;;;-142.75;100.00;77223.88;4953382;29;19921;-70
2022/07/12 05:58:00;;;;;;;;;;;;;;;-142.75;100.00;77217.97;4953015;28;20555;-69
2022/07/12 06:00:26;;;;;;;;;;;;;;;-142.75;100.00;77214.03;4953320;28;19914;-70
2022/07/12 06:02:51;;;;;;;;;;;;;;;-142.75;100.00;77206.16;4953230;28;19915;-70
2022/07/12 06:05:16;;;;;;;;;;;;;;;-142.75;100.00;77202.22;4953193;28;19922;-70
2022/07/12 06:07:41;;;;;;;;;;;;;;;-142.75;100.00;77200.25;4953097;28;20424;-68
2022/07/12 06:10:06;;;;;;;;;;;;;;;-142.75;100.00;77188.44;4951826;28;19914;-70
2022/07/12 06:12:32;;;;;;;;;;;;;;;-142.75;100.00;77176.63;4953016;28;19922;-70
2022/07/12 06:14:57;;;;;;;;;;;;;;;-142.75;100.00;77168.75;4953013;28;19915;-70
2022/07/12 06:17:23;;;;;;;;;;;;;;;-142.75;100.00;77158.91;4953065;28;20304;-70
2022/07/12 06:19:49;;;;;;;;;;;;;;;-142.75;100.00;77158.91;4952764;28;20053;-70
2022/07/12 06:22:14;;;;;;;;;;;;;;;-142.75;100.00;77158.91;4951750;28;20416;-69
2022/07/12 06:24:39;;;;;;;;;;;;;;;-142.75;100.00;77158.91;4953947;28;19918;-70
2022/07/12 06:27:04;;;;;;;;;;;;;;;-142.75;100.00;77154.97;4951567;28;19954;-70
2022/07/12 06:29:30;;;;;;;;;;;;;;;-142.75;100.00;77153.00;4940973;28;19922;-70
2022/07/12 06:31:56;;;;;;;;;;;;;;;-142.75;100.00;77151.03;4944388;28;19969;-70
2022/07/12 06:34:21;;;;;;;;;;;;;;;-142.75;100.00;77147.09;4943831;28;19918;-70
2022/07/12 06:36:46;;;;;;;;;;;;;;;-142.75;100.00;77145.13;4940620;28;19919;-69
2022/07/12 06:39:12;;;;;;;;;;;;;;;-142.75;100.00;77139.22;4943836;28;19925;-70
2022/07/12 06:41:37;;;;;;;;;;;;;;;-142.75;100.00;77131.34;4936022;28;19918;-70
2022/07/12 06:44:02;;;;;;;;;;;;;;;-142.75;100.00;77117.56;4943426;28;19918;-69
2022/07/12 06:46:28;;;;;;;;;;;;;;;-142.75;100.00;77099.84;4945978;28;19922;-70
2022/07/12 06:48:53;;;;;;;;;;;;;;;-142.75;100.00;77086.06;4952238;28;19915;-70
2022/07/12 06:51:18;;;;;;;;;;;;;;;-142.75;100.00;77068.34;4952445;28;20411;-69
2022/07/12 06:53:43;;;;;;;;;;;;;;;-142.75;100.00;77050.63;4952439;28;19914;-69
2022/07/12 06:56:08;;;;;;;;;;;;;;;-142.75;100.00;77044.72;4952422;28;19914;-70
2022/07/12 06:58:34;;;;;;;;;;;;;;;-142.75;100.00;77030.94;4952123;28;20000;-70
2022/07/12 07:00:59;;;;;;;;;;;;;;;-142.75;100.00;77011.25;4951403;28;19921;-70
2022/07/12 07:03:24;;;;;;;;;;;;;;;-142.75;100.00;76973.84;4952316;28;20399;-70
2022/07/12 07:05:50;;;;;;;;;;;;;;;-142.75;100.00;76960.06;4951082;28;20008;-70
2022/07/12 07:08:15;;;;;;;;;;;;;;;-142.75;100.00;76944.31;4950294;28;19937;-68
2022/07/12 07:10:40;;;;;;;;;;;;;;;-142.75;100.00;76916.75;4951379;28;19922;-69
2022/07/12 07:13:07;;;;;;;;;;;;;;;-142.75;100.00;76885.25;4949959;28;19990;-69
2022/07/12 07:15:32;;;;;;;;;;;;;;;-142.75;100.00;76873.44;4951314;28;19936;-69
2022/07/12 07:17:57;;;;;;;;;;;;;;;-142.75;100.00;76875.41;4951023;28;19915;-69
2022/07/12 07:20:23;;;;;;;;;;;;;;;-142.75;100.00;76881.31;4951235;28;19915;-69
2022/07/12 07:22:48;;;;;;;;;;;;;;;-142.75;100.00;76855.72;4950064;28;19965;-68
2022/07/12 07:25:13;;;;;;;;;;;;;;;-142.75;100.00;76818.31;4950876;28;19923;-68
2022/07/12 07:27:39;;;;;;;;;;;;;;;-142.75;100.00;76775.03;4950956;28;19914;-68
2022/07/12 07:32:48;;;;;;;;;;;;;;;-142.75;100.00;76696.28;4951208;28;20399;-69
2022/07/12 07:35:13;;;;;;;;;;;;;;;-142.75;100.00;76696.28;4951832;28;19914;-69
2022/07/12 07:37:38;;;;;;;;;;;;;;;-142.75;100.00;76668.72;4951818;28;19950;-69
2022/07/12 07:40:03;;;;;;;;;;;;;;;-142.75;100.00;76654.94;4951473;28;20013;-69
2022/07/12 07:42:29;;;;;;;;;;;;;;;-142.75;100.00;76647.06;4950563;28;20486;-70
2022/07/12 07:44:54;;;;;;;;;;;;;;;-142.75;100.00;76649.03;4951729;28;20356;-69
2022/07/12 07:47:19;;;;;;;;;;;;;;;-142.75;100.00;76649.03;4952080;28;19914;-70
2022/07/12 07:49:44;;;;;;;;;;;;;;;-142.75;100.00;76652.97;4951367;28;20005;-69
2022/07/12 07:52:10;;;;;;;;;;;;;;;-142.75;100.00;76649.03;4951553;28;20017;-69
2022/07/12 07:54:35;;;;;;;;;;;;;;;-142.75;100.00;76664.78;4951479;28;19960;-69
2022/07/12 07:57:00;;;;;;;;;;;;;;;-142.75;100.00;76664.78;4940338;28;20296;-70
2022/07/12 07:59:25;;;;;;;;;;;;;;;-142.75;100.00;76668.72;4934490;29;20001;-67
2022/07/12 08:01:53;;;;;;;;;;;;;;;-142.75;100.00;76660.84;4932462;28;19976;-68
2022/07/12 08:04:19;;;;;;;;;;;;;;;-142.75;100.00;76652.97;4932437;28;20312;-71
2022/07/12 08:06:45;;;;;;;;;;;;;;;-142.75;100.00;76658.88;4932363;28;19915;-70
2022/07/12 08:09:10;;;;;;;;;;;;;;;-142.75;100.00;76649.03;4932002;28;19969;-70
2022/07/12 08:11:35;;;;;;;;;;;;;;;-142.75;100.00;76637.22;4931912;28;19925;-69
2022/07/12 08:14:01;;;;;;;;;;;;;;;-142.75;100.00;76621.47;4931024;28;19986;-69
2022/07/12 08:16:26;;;;;;;;;;;;;;;-142.75;100.00;76617.53;4932565;28;19915;-68
2022/07/12 08:18:52;;;;;;;;;;;;;;;-142.75;100.00;76586.03;4931880;28;19915;-69
2022/07/12 08:21:17;;;;;;;;;;;;;;;-142.75;100.00;76540.75;4932208;28;20292;-69
2022/07/12 08:23:42;;;;;;;;;;;;;;;-142.75;100.00;76519.13;4931947;28;20016;-69
2022/07/12 08:26:07;;;;;;;;;;;;;;;-142.75;100.00;76497.47;4932117;29;19915;-70
2022/07/12 08:28:33;;;;;;;;;;;;;;;-142.75;100.00;76491.56;4931890;28;19973;-69
2022/07/12 08:30:58;;;;;;;;;;;;;;;-142.75;100.00;76530.91;4932071;29;19919;-69
2022/07/12 08:33:23;;;;;;;;;;;;;;;-142.75;100.00;76521.09;4930792;28;20005;-68
2022/07/12 08:35:48;;;;;;;;;;;;;;;-142.75;100.00;76542.72;4932052;28;19919;-68
2022/07/12 08:38:15;;;;;;;;;;;;;;;-142.75;100.00;76511.25;4931689;29;20304;-70
2022/07/12 08:40:40;;;;;;;;;;;;;;;-142.75;100.00;76481.72;4931971;28;20078;-71
2022/07/12 08:43:05;;;;;;;;;;;;;;;-142.75;100.00;76446.28;4931964;29;20392;-70
2022/07/12 08:45:31;;;;;;;;;;;;;;;-142.75;100.00;76426.59;4931871;28;19922;-70
2022/07/12 08:47:56;;;;;;;;;;;;;;;-142.75;100.00;76428.56;4931600;28;19923;-69
2022/07/12 08:50:23;;;;;;;;;;;;;;;-142.75;100.00;76420.69;4931906;28;20420;-70
2022/07/12 08:52:51;;;;;;;;;;;;;;;-142.75;100.00;76377.38;4931737;28;20303;-69
2022/07/12 08:55:24;;;;;;;;;;;;;;;-142.75;100.00;76373.44;4930414;28;19994;-68
2022/07/12 08:57:50;;;;;;;;;;;;;;;-142.75;100.00;76401.00;4931705;28;19915;-70
2022/07/12 09:00:16;;;;;;;;;;;;;;;-142.75;100.00;76414.78;4931175;28;19915;-68
2022/07/12 09:03:02;;;;;;;;;;;;;;;-142.75;100.00;76408.88;4931506;28;19921;-68
2022/07/12 09:05:31;;;;;;;;;;;;;;;-142.75;100.00;76373.44;4929744;28;19915;-69
2022/07/12 09:08:09;;;;;;;;;;;;;;;-142.75;100.00;76351.81;4931425;28;20478;-68
2022/07/12 09:10:50;;;;;;;;;;;;;;;-142.75;100.00;76357.69;4931667;28;19915;-69
2022/07/12 09:13:16;;;;;;;;;;;;;;;-142.75;100.00;76322.28;4930591;29;19923;-69
2022/07/12 09:15:42;;;;;;;;;;;;;;;-142.75;100.00;76318.34;4931625;28;20385;-69
2022/07/12 09:18:15;;;;;;;;;;;;;;;-142.75;100.00;76341.97;4930018;28;19981;-69
2022/07/12 09:20:41;;;;;;;;;;;;;;;-142.75;100.00;76322.28;4930687;28;20316;-69
2022/07/12 09:23:07;;;;;;;;;;;;;;;-142.75;100.00;76308.50;4931570;29;19915;-68
2022/07/12 09:25:33;;;;;;;;;;;;;;;-142.75;100.00;76312.44;4934546;28;19968;-69
2022/07/12 09:27:59;;;;;;;;;;;;;;;-142.75;100.00;76341.97;4934237;28;20346;-69
2022/07/12 09:30:27;;;;;;;;;;;;;;;-142.75;100.00;76340.00;4934294;28;20262;-69
2022/07/12 09:36:07;;;;;;;;;;;;;;;-142.75;100.00;76298.66;4934943;29;19922;-69
2022/07/12 09:38:34;;;;;;;;;;;;;;;-142.75;100.00;76277.00;4934258;29;20184;-69
2022/07/12 09:40:59;;;;;;;;;;;;;;;-142.75;100.00;76253.38;4933144;28;20435;-69
2022/07/12 09:43:26;;;;;;;;;;;;;;;-142.75;100.00;76243.53;4934412;28;19918;-69
2022/07/12 09:45:51;;;;;;;;;;;;;;;-142.75;100.00;76210.06;4934405;28;19915;-69
2022/07/12 09:48:18;;;;;;;;;;;;;;;-142.75;100.00;76188.44;4934127;28;19930;-69
2022/07/12 09:50:48;;;;;;;;;;;;;;;-142.75;100.00;76162.84;4934349;28;19919;-70
2022/07/12 09:53:18;;;;;;;;;;;;;;;-142.75;100.00;76145.13;4934325;28;20347;-69
2022/07/12 09:55:44;;;;;;;;;;;;;;;-142.75;100.00;76091.97;4934377;29;19946;-70
2022/07/12 09:58:12;;;;;;;;;;;;;;;-142.75;96.71;76109.69;4934001;28;19915;-69
2022/07/12 10:00:38;;;;;;;;;;;;;;;-142.75;94.18;76068.38;4934254;28;19919;-70
2022/07/12 10:03:04;;;;;;;;;;;;;;;-142.75;95.92;76090.00;4932915;28;19957;-69
2022/07/12 10:05:29;;;;;;;;;;;;;;;-142.75;90.31;76082.13;4934130;28;20049;-69
2022/07/12 10:07:55;;;;;;;;;;;;;;;-142.75;88.78;76127.41;4932542;28;20404;-68
2022/07/12 10:10:20;;;;;;;;;;;;;;;-142.75;87.88;76105.75;4934254;28;19915;-70
2022/07/12 10:12:46;;;;;;;;;;;;;;;-142.75;94.13;76131.34;4934088;29;20388;-70
2022/07/12 10:15:15;;;;;;;;;;;;;;;-142.75;94.97;76151.03;4934057;28;20000;-69
2022/07/12 10:17:43;;;;;;;;;;;;;;;-142.75;97.36;76160.88;4934099;28;19969;-68
2022/07/12 10:20:22;;;;;;;;;;;;;;;-142.75;97.42;76141.19;4933942;28;19921;-70
2022/07/12 10:22:47;;;;;;;;;;;;;;;-142.75;100.00;76135.28;4933990;29;20002;-70
2022/07/12 10:25:27;;;;;;;;;;;;;;;-142.75;99.63;76137.25;4933835;28;19966;-69
2022/07/12 10:27:52;;;;;;;;;;;;;;;-142.75;100.00;76101.81;4933768;29;19918;-67
2022/07/12 10:30:19;;;;;;;;;;;;;;;-142.75;95.23;76086.06;4933782;29;20377;-69
2022/07/12 10:32:45;;;;;;;;;;;;;;;-142.75;87.28;76066.41;4933858;28;20021;-69
2022/07/12 10:35:18;;;;;;;;;;;;;;;-142.75;94.52;76017.19;4933716;28;20365;-69
2022/07/12 10:38:03;;;;;;;;;;;;;;;-142.75;91.75;75995.53;4933531;28;20419;-67
2022/07/12 10:40:33;;;;;;;;;;;;;;;-142.75;77.95;76027.03;4933595;28;19977;-69
2022/07/12 10:43:04;;;;;;;;;;;;;;;-142.75;78.12;76086.06;4932430;28;19965;-69
2022/07/12 10:45:29;;;;;;;;;;;;;;;-142.75;79.03;76050.66;4933439;28;19915;-69
2022/07/12 10:47:55;;;;;;;;;;;;;;;-142.75;80.57;76040.81;4932012;28;19919;-68
2022/07/12 10:50:55;;;;;;;;;;;;;;;-142.75;81.54;76054.59;4933476;28;20342;-69
2022/07/12 10:53:29;;;;;;;;;;;;;;;-142.75;85.76;76046.72;4933337;28;19925;-69
2022/07/12 10:56:04;;;;;;;;;;;;;;;-142.75;82.14;76034.91;4932202;28;19914;-69
2022/07/12 10:58:36;;;;;;;;;;;;;;;-142.75;83.03;76017.19;4932136;28;19915;-69
2022/07/12 11:01:02;;;;;;;;;;;;;;;-142.75;78.25;75981.75;4933356;29;20013;-68
2022/07/12 11:03:32;;;;;;;;;;;;;;;-142.75;83.12;75954.22;4933245;28;19958;-70
2022/07/12 11:06:02;;;;;;;;;;;;;;;-142.75;82.35;75916.81;4932041;28;19915;-69
2022/07/12 11:08:28;;;;;;;;;;;;;;;-142.75;70.85;75928.63;4932806;28;20339;-69
2022/07/12 11:10:56;;;;;;;;;;;;;;;-142.75;72.19;75895.16;4933397;28;19961;-69
2022/07/12 11:13:23;;;;;;;;;;;;;;;-142.75;81.15;75834.16;4933125;28;19922;-69
2022/07/12 11:15:55;;;;;;;;;;;;;;;-142.75;68.63;75818.41;4933424;29;19915;-69
2022/07/12 11:18:27;;;;;;;;;;;;;;;-142.75;63.10;75897.13;4932887;29;19954;-70
2022/07/12 11:20:55;;;;;;;;;;;;;;;-142.75;67.70;75869.56;4931709;28;19921;-69
2022/07/12 11:23:20;;;;;;;;;;;;;;;-142.75;67.33;75903.03;4931539;28;19977;-68
2022/07/12 11:25:45;;;;;;;;;;;;;;;-142.75;66.38;75877.44;4933012;29;19918;-69
2022/07/12 11:28:10;;;;;;;;;;;;;;;-142.75;64.24;75853.84;4932677;28;19964;-69
2022/07/12 11:30:36;;;;;;;;;;;;;;;-142.75;68.01;75810.53;4931698;28;19954;-70
2022/07/12 11:33:01;;;;;;;;;;;;;;;-142.75;69.31;75779.03;4932845;28;19919;-70
2022/07/12 11:35:26;;;;;;;;;;;;;;;-142.75;63.79;75810.53;4932611;28;19914;-69
2022/07/12 11:37:53;;;;;;;;;;;;;;;-142.75;63.66;75794.78;4932519;29;19950;-67
2022/07/12 11:40:26;;;;;;;;;;;;;;;-142.75;66.95;75867.59;4932812;28;19915;-69
2022/07/12 11:42:52;;;;;;;;;;;;;;;-142.75;70.78;75836.13;4932752;28;20053;-70
2022/07/12 11:45:17;;;;;;;;;;;;;;;-142.75;64.42;75818.41;4932628;28;19968;-70
2022/07/12 11:47:42;;;;;;;;;;;;;;;-142.75;71.13;75771.16;4931895;28;20013;-68
2022/07/12 11:50:07;;;;;;;;;;;;;;;-142.75;65.56;75769.19;4932468;28;19921;-70
2022/07/12 11:52:34;;;;;;;;;;;;;;;-142.75;65.39;75759.38;4932594;28;19923;-70
2022/07/12 11:55:06;;;;;;;;;;;;;;;-142.75;67.05;75792.81;4931282;28;19921;-70
2022/07/12 11:57:32;;;;;;;;;;;;;;;-142.75;68.24;75802.66;4932510;29;19915;-68
2022/07/12 11:59:57;;;;;;;;;;;;;;;-142.75;67.69;75808.56;4932310;28;19914;-70
2022/07/12 12:02:23;;;;;;;;;;;;;;;-142.75;61.81;75855.81;4932455;28;20580;-69
2022/07/12 12:04:51;;;;;;;;;;;;;;;-142.75;61.58;75857.78;4931242;28;19922;-69
2022/07/12 12:07:17;;;;;;;;;;;;;;;-142.75;65.29;75853.84;4931196;28;19915;-70
2022/07/12 12:09:58;;;;;;;;;;;;;;;-142.75;68.95;75820.38;4932060;28;19965;-69
2022/07/12 12:12:24;;;;;;;;;;;;;;;-142.75;63.11;75792.81;4932354;28;19923;-69
2022/07/12 12:14:49;;;;;;;;;;;;;;;-142.75;63.45;75800.69;4932253;28;19922;-69
2022/07/12 12:17:14;;;;;;;;;;;;;;;-142.75;61.07;75812.50;4932189;28;19921;-69
2022/07/12 12:19:42;;;;;;;;;;;;;;;-142.75;62.86;75786.91;4931986;28;19915;-69
2022/07/12 12:22:27;;;;;;;;;;;;;;;-142.75;66.11;75759.38;4932213;28;19915;-69
2022/07/12 12:24:59;;;;;;;;;;;;;;;-142.75;61.33;75790.84;4933198;28;20014;-70